sensor_id;sensor_type;location;lat;lon;timestamp;pressure;altitude;pressure_sealevel;temperature;humidity
46690;BME280;32423;45.398;10.874;2023-01-15T00:00:29;101161.25;;;10.47;57.00
46690;BME280;32423;45.398;10.874;2023-01-15T00:03:13;101152.63;;;10.45;57.85
46690;BME280;32423;45.398;10.874;2023-01-15T00:06:01;101145.03;;;10.69;57.07
46690;BME280;32423;45.398;10.874;2023-01-15T00:08:47;101142.00;;;10.70;57.27
46690;BME280;32423;45.398;10.874;2023-01-15T00:11:32;101138.31;;;10.89;57.73
46690;BME280;32423;45.398;10.874;2023-01-15T00:14:17;101139.31;;;10.93;57.26
46690;BME280;32423;45.398;10.874;2023-01-15T00:17:01;101135.69;;;10.97;56.18
46690;BME280;32423;45.398;10.874;2023-01-15T00:19:46;101135.31;;;10.90;56.73
46690;BME280;32423;45.398;10.874;2023-01-15T00:22:30;101138.75;;;10.82;56.81
46690;BME280;32423;45.398;10.874;2023-01-15T00:25:15;101124.84;;;10.84;56.02
46690;BME280;32423;45.398;10.874;2023-01-15T00:28:18;101122.75;;;10.67;55.85
46690;BME280;32423;45.398;10.874;2023-01-15T00:31:03;101123.19;;;10.47;54.56
46690;BME280;32423;45.398;10.874;2023-01-15T00:33:48;101112.84;;;10.21;55.41
46690;BME280;32423;45.398;10.874;2023-01-15T00:36:34;101106.31;;;9.95;56.39
46690;BME280;32423;45.398;10.874;2023-01-15T00:39:21;101097.03;;;9.96;56.39
46690;BME280;32423;45.398;10.874;2023-01-15T00:42:07;101096.44;;;9.99;56.36
46690;BME280;32423;45.398;10.874;2023-01-15T00:44:52;101099.06;;;10.04;57.62
46690;BME280;32423;45.398;10.874;2023-01-15T00:47:37;101100.66;;;10.05;57.58
46690;BME280;32423;45.398;10.874;2023-01-15T00:50:22;101100.06;;;10.22;58.69
46690;BME280;32423;45.398;10.874;2023-01-15T00:53:06;101100.66;;;10.46;57.56
46690;BME280;32423;45.398;10.874;2023-01-15T00:55:51;101103.19;;;10.29;57.26
46690;BME280;32423;45.398;10.874;2023-01-15T00:58:35;101095.53;;;10.31;58.16
46690;BME280;32423;45.398;10.874;2023-01-15T01:01:20;101097.72;;;10.43;57.62
46690;BME280;32423;45.398;10.874;2023-01-15T01:04:05;101093.06;;;10.57;57.10
46690;BME280;32423;45.398;10.874;2023-01-15T01:06:49;101089.94;;;10.63;57.73
46690;BME280;32423;45.398;10.874;2023-01-15T01:09:34;101091.25;;;10.66;57.65
46690;BME280;32423;45.398;10.874;2023-01-15T01:12:19;101084.69;;;10.67;57.43
46690;BME280;32423;45.398;10.874;2023-01-15T01:15:05;101076.28;;;10.77;57.18
46690;BME280;32423;45.398;10.874;2023-01-15T01:17:52;101084.56;;;10.72;56.72
46690;BME280;32423;45.398;10.874;2023-01-15T01:20:36;101075.03;;;10.25;56.86
46690;BME280;32423;45.398;10.874;2023-01-15T01:23:23;101075.22;;;10.28;57.99
46690;BME280;32423;45.398;10.874;2023-01-15T01:26:07;101077.19;;;10.37;58.00
46690;BME280;32423;45.398;10.874;2023-01-15T01:28:53;101071.16;;;10.26;57.80
46690;BME280;32423;45.398;10.874;2023-01-15T01:31:37;101068.94;;;10.42;57.95
46690;BME280;32423;45.398;10.874;2023-01-15T01:34:22;101065.81;;;10.48;58.11
46690;BME280;32423;45.398;10.874;2023-01-15T01:37:07;101071.44;;;10.52;58.21
46690;BME280;32423;45.398;10.874;2023-01-15T01:39:51;101068.00;;;10.60;58.44
46690;BME280;32423;45.398;10.874;2023-01-15T01:42:37;101054.00;;;10.53;57.87
46690;BME280;32423;45.398;10.874;2023-01-15T01:45:23;101058.91;;;10.15;56.26
46690;BME280;32423;45.398;10.874;2023-01-15T01:48:08;101061.69;;;10.37;57.64
46690;BME280;32423;45.398;10.874;2023-01-15T01:50:53;101065.22;;;10.38;57.20
46690;BME280;32423;45.398;10.874;2023-01-15T01:53:39;101064.31;;;10.42;56.39
46690;BME280;32423;45.398;10.874;2023-01-15T01:56:23;101058.69;;;10.11;57.75
46690;BME280;32423;45.398;10.874;2023-01-15T01:59:11;101059.94;;;10.19;57.11
46690;BME280;32423;45.398;10.874;2023-01-15T02:01:57;101061.72;;;10.23;57.68
46690;BME280;32423;45.398;10.874;2023-01-15T02:04:43;101052.66;;;10.14;57.06
46690;BME280;32423;45.398;10.874;2023-01-15T02:07:28;101052.06;;;10.17;57.13
46690;BME280;32423;45.398;10.874;2023-01-15T02:10:17;101040.19;;;10.00;56.66
46690;BME280;32423;45.398;10.874;2023-01-15T02:13:03;101031.44;;;10.03;57.66
46690;BME280;32423;45.398;10.874;2023-01-15T02:15:59;101035.78;;;9.90;57.55
46690;BME280;32423;45.398;10.874;2023-01-15T02:18:49;101032.44;;;9.93;57.61
46690;BME280;32423;45.398;10.874;2023-01-15T02:21:47;101026.31;;;9.74;57.70
46690;BME280;32423;45.398;10.874;2023-01-15T02:27:20;101012.84;;;9.82;57.80
46690;BME280;32423;45.398;10.874;2023-01-15T02:30:08;100998.75;;;9.94;58.75
46690;BME280;32423;45.398;10.874;2023-01-15T02:33:10;100997.66;;;9.95;59.63
46690;BME280;32423;45.398;10.874;2023-01-15T02:35:57;100995.53;;;9.78;58.32
46690;BME280;32423;45.398;10.874;2023-01-15T02:38:50;100988.69;;;9.81;57.11
46690;BME280;32423;45.398;10.874;2023-01-15T02:41:37;100982.16;;;9.82;57.34
46690;BME280;32423;45.398;10.874;2023-01-15T02:44:24;100972.97;;;9.92;56.52
46690;BME280;32423;45.398;10.874;2023-01-15T02:47:12;100974.50;;;9.84;56.65
46690;BME280;32423;45.398;10.874;2023-01-15T02:50:01;100972.91;;;9.56;57.63
46690;BME280;32423;45.398;10.874;2023-01-15T02:52:56;100972.22;;;9.64;58.94
46690;BME280;32423;45.398;10.874;2023-01-15T02:55:47;100966.47;;;9.52;57.89
46690;BME280;32423;45.398;10.874;2023-01-15T02:58:36;100960.22;;;9.78;58.37
46690;BME280;32423;45.398;10.874;2023-01-15T03:01:24;100952.16;;;9.87;59.06
46690;BME280;32423;45.398;10.874;2023-01-15T03:04:13;100957.44;;;10.06;60.34
46690;BME280;32423;45.398;10.874;2023-01-15T03:07:04;100952.94;;;10.01;60.78
46690;BME280;32423;45.398;10.874;2023-01-15T03:09:53;100957.78;;;10.04;58.86
46690;BME280;32423;45.398;10.874;2023-01-15T03:12:44;100960.19;;;10.19;59.81
46690;BME280;32423;45.398;10.874;2023-01-15T03:16:16;100958.22;;;10.34;59.35
46690;BME280;32423;45.398;10.874;2023-01-15T03:19:26;100950.31;;;10.23;59.24
46690;BME280;32423;45.398;10.874;2023-01-15T03:27:58;100943.00;;;10.33;58.30
46690;BME280;32423;45.398;10.874;2023-01-15T03:30:45;100948.44;;;10.33;58.65
46690;BME280;32423;45.398;10.874;2023-01-15T03:33:31;100939.53;;;10.18;58.49
46690;BME280;32423;45.398;10.874;2023-01-15T03:36:17;100934.97;;;10.27;59.06
46690;BME280;32423;45.398;10.874;2023-01-15T03:39:05;100935.50;;;10.29;58.28
46690;BME280;32423;45.398;10.874;2023-01-15T03:45:14;100933.47;;;10.21;59.26
46690;BME280;32423;45.398;10.874;2023-01-15T03:50:55;100914.88;;;10.15;58.58
46690;BME280;32423;45.398;10.874;2023-01-15T03:53:48;100914.41;;;9.99;58.19
46690;BME280;32423;45.398;10.874;2023-01-15T03:59:45;100903.03;;;9.97;57.89
46690;BME280;32423;45.398;10.874;2023-01-15T04:02:32;100901.66;;;10.00;57.97
46690;BME280;32423;45.398;10.874;2023-01-15T04:05:16;100899.72;;;10.00;56.57
46690;BME280;32423;45.398;10.874;2023-01-15T04:08:04;100891.59;;;10.00;55.91
46690;BME280;32423;45.398;10.874;2023-01-15T04:10:57;100883.19;;;10.10;55.96
46690;BME280;32423;45.398;10.874;2023-01-15T04:13:46;100878.06;;;9.73;56.92
46690;BME280;32423;45.398;10.874;2023-01-15T04:16:47;100868.34;;;9.58;57.51
46690;BME280;32423;45.398;10.874;2023-01-15T04:19:32;100862.88;;;9.72;56.68
46690;BME280;32423;45.398;10.874;2023-01-15T04:22:20;100860.53;;;9.43;57.37
46690;BME280;32423;45.398;10.874;2023-01-15T04:25:05;100857.72;;;9.48;57.02
46690;BME280;32423;45.398;10.874;2023-01-15T04:27:52;100856.00;;;9.38;57.55
46690;BME280;32423;45.398;10.874;2023-01-15T04:30:37;100860.47;;;9.70;56.91
46690;BME280;32423;45.398;10.874;2023-01-15T04:33:22;100860.81;;;9.91;56.57
46690;BME280;32423;45.398;10.874;2023-01-15T04:36:07;100866.69;;;9.71;57.26
46690;BME280;32423;45.398;10.874;2023-01-15T04:38:51;100852.56;;;9.47;57.76
46690;BME280;32423;45.398;10.874;2023-01-15T04:41:37;100852.97;;;9.40;58.08
46690;BME280;32423;45.398;10.874;2023-01-15T04:45:00;100852.72;;;9.77;57.24
46690;BME280;32423;45.398;10.874;2023-01-15T04:47:45;100857.91;;;9.87;56.58
46690;BME280;32423;45.398;10.874;2023-01-15T04:50:29;100857.56;;;9.67;56.60
46690;BME280;32423;45.398;10.874;2023-01-15T04:53:14;100851.97;;;9.36;57.47
46690;BME280;32423;45.398;10.874;2023-01-15T04:55:59;100845.34;;;9.42;57.67
46690;BME280;32423;45.398;10.874;2023-01-15T04:58:43;100850.81;;;9.28;58.18
46690;BME280;32423;45.398;10.874;2023-01-15T05:01:28;100850.63;;;9.61;57.64
46690;BME280;32423;45.398;10.874;2023-01-15T05:04:12;100842.03;;;9.81;57.93
46690;BME280;32423;45.398;10.874;2023-01-15T05:06:57;100837.84;;;9.75;58.84
46690;BME280;32423;45.398;10.874;2023-01-15T05:09:41;100831.91;;;9.73;59.43
46690;BME280;32423;45.398;10.874;2023-01-15T05:12:26;100827.00;;;9.61;60.26
46690;BME280;32423;45.398;10.874;2023-01-15T05:15:10;100823.69;;;9.64;60.79
46690;BME280;32423;45.398;10.874;2023-01-15T05:17:55;100822.00;;;9.55;61.65
46690;BME280;32423;45.398;10.874;2023-01-15T05:20:40;100821.28;;;9.63;61.73
46690;BME280;32423;45.398;10.874;2023-01-15T05:23:25;100811.78;;;9.74;61.43
46690;BME280;32423;45.398;10.874;2023-01-15T05:26:09;100811.00;;;9.73;61.24
46690;BME280;32423;45.398;10.874;2023-01-15T05:28:55;100813.34;;;9.53;61.69
46690;BME280;32423;45.398;10.874;2023-01-15T05:31:40;100822.72;;;9.47;61.76
46690;BME280;32423;45.398;10.874;2023-01-15T05:34:26;100824.31;;;9.48;61.25
46690;BME280;32423;45.398;10.874;2023-01-15T05:37:10;100825.63;;;9.50;61.05
46690;BME280;32423;45.398;10.874;2023-01-15T05:39:56;100824.31;;;9.48;60.49
46690;BME280;32423;45.398;10.874;2023-01-15T05:42:40;100825.66;;;9.36;61.18
46690;BME280;32423;45.398;10.874;2023-01-15T05:45:25;100814.16;;;9.04;62.03
46690;BME280;32423;45.398;10.874;2023-01-15T05:48:09;100798.25;;;8.70;63.37
46690;BME280;32423;45.398;10.874;2023-01-15T05:50:54;100802.97;;;8.64;64.00
46690;BME280;32423;45.398;10.874;2023-01-15T05:53:38;100812.84;;;8.87;63.30
46690;BME280;32423;45.398;10.874;2023-01-15T05:56:23;100797.47;;;8.96;63.14
46690;BME280;32423;45.398;10.874;2023-01-15T05:59:08;100797.16;;;8.84;63.25
46690;BME280;32423;45.398;10.874;2023-01-15T06:01:53;100804.19;;;8.72;64.03
46690;BME280;32423;45.398;10.874;2023-01-15T06:04:37;100813.81;;;9.05;63.17
46690;BME280;32423;45.398;10.874;2023-01-15T06:07:22;100804.94;;;9.40;61.64
46690;BME280;32423;45.398;10.874;2023-01-15T06:10:06;100806.72;;;9.45;61.41
46690;BME280;32423;45.398;10.874;2023-01-15T06:12:51;100791.06;;;9.42;62.01
46690;BME280;32423;45.398;10.874;2023-01-15T06:15:35;100800.22;;;9.32;62.79
46690;BME280;32423;45.398;10.874;2023-01-15T06:18:21;100788.06;;;9.43;61.60
46690;BME280;32423;45.398;10.874;2023-01-15T06:21:07;100775.41;;;9.39;60.97
46690;BME280;32423;45.398;10.874;2023-01-15T06:23:52;100772.63;;;8.48;64.69
46690;BME280;32423;45.398;10.874;2023-01-15T06:26:37;100768.97;;;8.58;64.38
46690;BME280;32423;45.398;10.874;2023-01-15T06:29:23;100777.97;;;9.08;62.94
46690;BME280;32423;45.398;10.874;2023-01-15T06:32:07;100768.25;;;8.93;63.05
46690;BME280;32423;45.398;10.874;2023-01-15T06:34:51;100780.44;;;9.32;61.88
46690;BME280;32423;45.398;10.874;2023-01-15T06:37:36;100795.22;;;9.39;61.92
46690;BME280;32423;45.398;10.874;2023-01-15T06:40:21;100793.50;;;9.30;62.52
46690;BME280;32423;45.398;10.874;2023-01-15T06:43:08;100789.72;;;9.17;62.51
46690;BME280;32423;45.398;10.874;2023-01-15T06:46:12;100785.16;;;9.26;62.10
46690;BME280;32423;45.398;10.874;2023-01-15T06:49:15;100781.16;;;9.24;61.90
46690;BME280;32423;45.398;10.874;2023-01-15T06:52:00;100785.16;;;9.26;61.44
46690;BME280;32423;45.398;10.874;2023-01-15T06:54:45;100793.72;;;9.33;60.75
46690;BME280;32423;45.398;10.874;2023-01-15T06:57:29;100785.91;;;9.18;60.86
46690;BME280;32423;45.398;10.874;2023-01-15T07:00:14;100786.81;;;9.14;61.02
46690;BME280;32423;45.398;10.874;2023-01-15T07:02:59;100772.66;;;9.03;61.40
46690;BME280;32423;45.398;10.874;2023-01-15T07:05:44;100766.03;;;8.82;62.62
46690;BME280;32423;45.398;10.874;2023-01-15T07:08:29;100763.59;;;9.08;61.87
46690;BME280;32423;45.398;10.874;2023-01-15T07:11:13;100756.78;;;8.96;62.26
46690;BME280;32423;45.398;10.874;2023-01-15T07:13:58;100729.38;;;8.71;64.65
46690;BME280;32423;45.398;10.874;2023-01-15T07:16:49;100716.56;;;8.63;65.97
46690;BME280;32423;45.398;10.874;2023-01-15T07:19:34;100720.06;;;8.77;64.55
46690;BME280;32423;45.398;10.874;2023-01-15T07:22:18;100728.56;;;8.97;63.55
46690;BME280;32423;45.398;10.874;2023-01-15T07:25:03;100740.94;;;8.63;63.90
46690;BME280;32423;45.398;10.874;2023-01-15T07:27:48;100743.44;;;8.59;64.49
46690;BME280;32423;45.398;10.874;2023-01-15T07:30:32;100747.03;;;8.54;65.00
46690;BME280;32423;45.398;10.874;2023-01-15T07:33:17;100749.56;;;8.65;65.44
46690;BME280;32423;45.398;10.874;2023-01-15T07:36:02;100727.47;;;8.44;66.17
46690;BME280;32423;45.398;10.874;2023-01-15T07:38:46;100724.69;;;8.63;65.63
46690;BME280;32423;45.398;10.874;2023-01-15T07:41:30;100736.91;;;8.74;65.17
46690;BME280;32423;45.398;10.874;2023-01-15T07:44:34;100733.97;;;8.84;65.15
46690;BME280;32423;45.398;10.874;2023-01-15T07:47:37;100744.81;;;9.11;64.54
46690;BME280;32423;45.398;10.874;2023-01-15T07:50:40;100757.38;;;9.07;64.28
46690;BME280;32423;45.398;10.874;2023-01-15T07:53:25;100760.50;;;8.87;65.31
46690;BME280;32423;45.398;10.874;2023-01-15T07:56:10;100753.06;;;8.92;65.31
46690;BME280;32423;45.398;10.874;2023-01-15T07:58:55;100758.88;;;8.99;65.09
46690;BME280;32423;45.398;10.874;2023-01-15T08:01:39;100741.03;;;8.98;65.37
46690;BME280;32423;45.398;10.874;2023-01-15T08:04:24;100737.81;;;8.83;65.97
46690;BME280;32423;45.398;10.874;2023-01-15T08:07:08;100738.50;;;9.02;65.21
46690;BME280;32423;45.398;10.874;2023-01-15T08:09:53;100743.03;;;8.93;65.42
46690;BME280;32423;45.398;10.874;2023-01-15T08:12:38;100745.63;;;8.98;65.51
46690;BME280;32423;45.398;10.874;2023-01-15T08:15:41;100758.59;;;8.87;65.78
46690;BME280;32423;45.398;10.874;2023-01-15T08:18:27;100759.88;;;8.90;66.08
46690;BME280;32423;45.398;10.874;2023-01-15T08:21:12;100747.94;;;8.91;65.68
46690;BME280;32423;45.398;10.874;2023-01-15T08:23:56;100755.28;;;8.90;66.29
46690;BME280;32423;45.398;10.874;2023-01-15T08:26:41;100748.56;;;8.88;66.20
46690;BME280;32423;45.398;10.874;2023-01-15T08:29:26;100742.53;;;8.77;66.77
46690;BME280;32423;45.398;10.874;2023-01-15T08:32:11;100731.47;;;8.74;66.96
46690;BME280;32423;45.398;10.874;2023-01-15T08:34:56;100726.97;;;8.69;66.89
46690;BME280;32423;45.398;10.874;2023-01-15T08:37:41;100736.81;;;8.79;66.80
46690;BME280;32423;45.398;10.874;2023-01-15T08:40:25;100743.50;;;8.95;66.08
46690;BME280;32423;45.398;10.874;2023-01-15T08:43:10;100736.09;;;8.87;66.05
46690;BME280;32423;45.398;10.874;2023-01-15T08:45:55;100746.34;;;9.04;65.44
46690;BME280;32423;45.398;10.874;2023-01-15T08:48:41;100736.88;;;9.01;65.51
46690;BME280;32423;45.398;10.874;2023-01-15T08:51:25;100720.53;;;8.79;66.75
46690;BME280;32423;45.398;10.874;2023-01-15T08:54:11;100717.44;;;8.72;66.86
46690;BME280;32423;45.398;10.874;2023-01-15T08:56:55;100719.63;;;8.70;67.68
46690;BME280;32423;45.398;10.874;2023-01-15T08:59:40;100734.19;;;8.74;67.79
46690;BME280;32423;45.398;10.874;2023-01-15T09:02:26;100735.00;;;8.74;67.47
46690;BME280;32423;45.398;10.874;2023-01-15T09:05:12;100731.38;;;8.92;66.66
46690;BME280;32423;45.398;10.874;2023-01-15T09:07:57;100724.34;;;8.91;66.16
46690;BME280;32423;45.398;10.874;2023-01-15T09:10:41;100720.22;;;8.94;66.34
46690;BME280;32423;45.398;10.874;2023-01-15T09:13:26;100721.22;;;8.84;66.59
46690;BME280;32423;45.398;10.874;2023-01-15T09:16:11;100699.41;;;9.03;65.33
46690;BME280;32423;45.398;10.874;2023-01-15T09:18:55;100712.19;;;8.89;65.62
46690;BME280;32423;45.398;10.874;2023-01-15T09:21:40;100724.06;;;8.93;65.66
46690;BME280;32423;45.398;10.874;2023-01-15T09:24:24;100716.31;;;8.86;65.85
46690;BME280;32423;45.398;10.874;2023-01-15T09:27:10;100719.00;;;9.00;64.96
46690;BME280;32423;45.398;10.874;2023-01-15T09:29:55;100722.22;;;9.02;64.87
46690;BME280;32423;45.398;10.874;2023-01-15T09:32:39;100724.81;;;9.07;64.45
46690;BME280;32423;45.398;10.874;2023-01-15T09:35:23;100728.06;;;8.95;64.28
46690;BME280;32423;45.398;10.874;2023-01-15T09:38:11;100735.06;;;9.10;64.41
46690;BME280;32423;45.398;10.874;2023-01-15T09:40:56;100729.03;;;8.99;64.51
46690;BME280;32423;45.398;10.874;2023-01-15T09:43:47;100732.38;;;8.96;65.34
46690;BME280;32423;45.398;10.874;2023-01-15T09:46:48;100725.00;;;9.11;65.20
46690;BME280;32423;45.398;10.874;2023-01-15T09:52:45;100719.41;;;9.07;65.54
46690;BME280;32423;45.398;10.874;2023-01-15T09:55:44;100701.69;;;9.10;65.59
46690;BME280;32423;45.398;10.874;2023-01-15T09:58:34;100709.06;;;9.09;65.56
46690;BME280;32423;45.398;10.874;2023-01-15T10:01:22;100700.91;;;9.09;65.52
46690;BME280;32423;45.398;10.874;2023-01-15T10:06:59;100686.38;;;9.27;64.93
46690;BME280;32423;45.398;10.874;2023-01-15T10:09:49;100674.09;;;9.30;64.92
46690;BME280;32423;45.398;10.874;2023-01-15T10:12:37;100673.22;;;9.21;65.42
46690;BME280;32423;45.398;10.874;2023-01-15T10:15:24;100675.75;;;9.17;65.76
46690;BME280;32423;45.398;10.874;2023-01-15T10:18:20;100651.78;;;9.33;65.24
46690;BME280;32423;45.398;10.874;2023-01-15T10:21:28;100641.50;;;9.43;64.24
46690;BME280;32423;45.398;10.874;2023-01-15T10:24:25;100640.19;;;9.41;64.74
46690;BME280;32423;45.398;10.874;2023-01-15T10:27:19;100636.63;;;9.32;64.69
46690;BME280;32423;45.398;10.874;2023-01-15T10:30:15;100635.59;;;9.19;65.57
46690;BME280;32423;45.398;10.874;2023-01-15T10:36:14;100620.06;;;9.20;66.29
46690;BME280;32423;45.398;10.874;2023-01-15T10:42:00;100626.91;;;8.95;67.18
46690;BME280;32423;45.398;10.874;2023-01-15T10:44:51;100627.94;;;8.85;67.54
46690;BME280;32423;45.398;10.874;2023-01-15T10:50:51;100625.69;;;9.01;66.88
46690;BME280;32423;45.398;10.874;2023-01-15T10:53:44;100635.13;;;9.26;65.61
46690;BME280;32423;45.398;10.874;2023-01-15T10:56:42;100636.22;;;9.25;65.72
46690;BME280;32423;45.398;10.874;2023-01-15T11:02:21;100619.84;;;9.08;66.18
46690;BME280;32423;45.398;10.874;2023-01-15T11:05:11;100620.94;;;9.07;66.26
46690;BME280;32423;45.398;10.874;2023-01-15T11:07:58;100619.72;;;9.13;65.97
46690;BME280;32423;45.398;10.874;2023-01-15T11:10:42;100614.84;;;9.01;66.94
46690;BME280;32423;45.398;10.874;2023-01-15T11:13:29;100616.56;;;9.41;65.59
46690;BME280;32423;45.398;10.874;2023-01-15T11:16:32;100597.97;;;9.57;64.36
46690;BME280;32423;45.398;10.874;2023-01-15T11:19:40;100587.13;;;9.57;64.61
46690;BME280;32423;45.398;10.874;2023-01-15T11:22:27;100574.88;;;9.68;64.45
46690;BME280;32423;45.398;10.874;2023-01-15T11:25:12;100572.63;;;9.62;65.32
46690;BME280;32423;45.398;10.874;2023-01-15T11:28:02;100569.63;;;9.72;64.98
46690;BME280;32423;45.398;10.874;2023-01-15T11:30:52;100555.78;;;9.51;65.73
46690;BME280;32423;45.398;10.874;2023-01-15T11:33:39;100556.81;;;9.33;66.73
46690;BME280;32423;45.398;10.874;2023-01-15T11:36:24;100543.97;;;9.47;66.76
46690;BME280;32423;45.398;10.874;2023-01-15T11:39:26;100529.47;;;8.98;67.83
46690;BME280;32423;45.398;10.874;2023-01-15T11:42:14;100535.25;;;9.28;67.08
46690;BME280;32423;45.398;10.874;2023-01-15T11:45:19;100531.31;;;9.42;66.75
46690;BME280;32423;45.398;10.874;2023-01-15T11:48:22;100523.34;;;9.46;67.36
46690;BME280;32423;45.398;10.874;2023-01-15T11:51:26;100525.66;;;9.61;66.62
46690;BME280;32423;45.398;10.874;2023-01-15T11:54:11;100528.44;;;9.78;66.20
46690;BME280;32423;45.398;10.874;2023-01-15T11:56:56;100517.22;;;9.71;66.09
46690;BME280;32423;45.398;10.874;2023-01-15T11:59:41;100508.53;;;9.52;67.42
46690;BME280;32423;45.398;10.874;2023-01-15T12:02:35;100492.75;;;9.54;67.61
46690;BME280;32423;45.398;10.874;2023-01-15T12:05:33;100491.91;;;9.45;67.91
46690;BME280;32423;45.398;10.874;2023-01-15T12:08:29;100492.84;;;9.40;68.08
46690;BME280;32423;45.398;10.874;2023-01-15T12:20:20;100468.09;;;9.42;67.71
46690;BME280;32423;45.398;10.874;2023-01-15T12:28:50;100466.50;;;9.41;68.41
46690;BME280;32423;45.398;10.874;2023-01-15T12:34:24;100473.63;;;9.59;68.18
46690;BME280;32423;45.398;10.874;2023-01-15T12:37:16;100466.88;;;9.57;68.33
46690;BME280;32423;45.398;10.874;2023-01-15T12:42:51;100462.97;;;9.40;69.29
46690;BME280;32423;45.398;10.874;2023-01-15T12:45:56;100464.38;;;9.69;68.42
46690;BME280;32423;45.398;10.874;2023-01-15T12:51:50;100456.81;;;9.57;68.88
46690;BME280;32423;45.398;10.874;2023-01-15T12:54:40;100454.78;;;9.63;68.95
46690;BME280;32423;45.398;10.874;2023-01-15T12:57:30;100442.47;;;9.65;69.42
46690;BME280;32423;45.398;10.874;2023-01-15T13:00:24;100429.28;;;9.98;67.65
46690;BME280;32423;45.398;10.874;2023-01-15T13:03:22;100427.53;;;9.94;67.56
46690;BME280;32423;45.398;10.874;2023-01-15T13:06:09;100412.50;;;9.79;68.41
46690;BME280;32423;45.398;10.874;2023-01-15T13:11:43;100395.25;;;9.75;69.20
46690;BME280;32423;45.398;10.874;2023-01-15T13:14:28;100377.00;;;9.50;69.92
46690;BME280;32423;45.398;10.874;2023-01-15T13:17:30;100368.09;;;9.92;68.42
46690;BME280;32423;45.398;10.874;2023-01-15T13:31:58;100347.28;;;9.53;70.44
46690;BME280;32423;45.398;10.874;2023-01-15T13:37:39;100350.16;;;9.57;70.36
46690;BME280;32423;45.398;10.874;2023-01-15T13:40:26;100352.94;;;9.09;72.61
46690;BME280;32423;45.398;10.874;2023-01-15T13:43:18;100343.28;;;9.51;71.14
46690;BME280;32423;45.398;10.874;2023-01-15T13:46:07;100344.88;;;9.52;70.98
46690;BME280;32423;45.398;10.874;2023-01-15T13:48:54;100343.81;;;9.70;70.91
46690;BME280;32423;45.398;10.874;2023-01-15T13:51:38;100339.34;;;9.74;70.73
46690;BME280;32423;45.398;10.874;2023-01-15T13:54:27;100343.97;;;9.65;70.74
46690;BME280;32423;45.398;10.874;2023-01-15T13:57:22;100339.19;;;9.79;70.28
46690;BME280;32423;45.398;10.874;2023-01-15T14:03:24;100324.16;;;9.73;70.70
46690;BME280;32423;45.398;10.874;2023-01-15T14:06:09;100319.22;;;9.75;70.90
46690;BME280;32423;45.398;10.874;2023-01-15T14:08:53;100322.25;;;9.73;70.76
46690;BME280;32423;45.398;10.874;2023-01-15T14:14:50;100333.72;;;9.70;70.98
46690;BME280;32423;45.398;10.874;2023-01-15T14:26:31;100339.94;;;9.62;70.87
46690;BME280;32423;45.398;10.874;2023-01-15T14:32:45;100349.06;;;9.92;70.28
46690;BME280;32423;45.398;10.874;2023-01-15T14:35:39;100328.13;;;9.75;70.93
46690;BME280;32423;45.398;10.874;2023-01-15T14:38:27;100319.50;;;9.91;70.86
46690;BME280;32423;45.398;10.874;2023-01-15T14:41:13;100317.44;;;9.79;70.82
46690;BME280;32423;45.398;10.874;2023-01-15T14:43:58;100298.28;;;9.84;70.88
46690;BME280;32423;45.398;10.874;2023-01-15T14:46:44;100288.22;;;9.84;70.80
46690;BME280;32423;45.398;10.874;2023-01-15T14:49:29;100289.34;;;9.75;71.23
46690;BME280;32423;45.398;10.874;2023-01-15T14:52:19;100280.22;;;9.88;70.66
46690;BME280;32423;45.398;10.874;2023-01-15T14:55:06;100281.50;;;9.82;70.20
46690;BME280;32423;45.398;10.874;2023-01-15T14:58:00;100298.75;;;9.77;70.51
46690;BME280;32423;45.398;10.874;2023-01-15T15:00:46;100301.00;;;9.67;71.11
46690;BME280;32423;45.398;10.874;2023-01-15T15:03:36;100315.34;;;10.02;69.97
46690;BME280;32423;45.398;10.874;2023-01-15T15:06:22;100308.47;;;10.21;69.45
46690;BME280;32423;45.398;10.874;2023-01-15T15:09:06;100307.84;;;9.99;69.81
46690;BME280;32423;45.398;10.874;2023-01-15T15:12:00;100312.47;;;10.15;69.59
46690;BME280;32423;45.398;10.874;2023-01-15T15:17:57;100307.69;;;10.04;69.86
46690;BME280;32423;45.398;10.874;2023-01-15T15:20:45;100320.31;;;10.25;69.39
46690;BME280;32423;45.398;10.874;2023-01-15T15:23:42;100318.06;;;10.27;69.06
46690;BME280;32423;45.398;10.874;2023-01-15T15:26:35;100295.97;;;10.38;68.65
46690;BME280;32423;45.398;10.874;2023-01-15T15:29:20;100303.03;;;10.21;69.16
46690;BME280;32423;45.398;10.874;2023-01-15T15:32:05;100296.50;;;10.22;69.57
46690;BME280;32423;45.398;10.874;2023-01-15T15:34:50;100303.69;;;10.18;69.26
46690;BME280;32423;45.398;10.874;2023-01-15T15:37:36;100302.13;;;9.83;70.76
46690;BME280;32423;45.398;10.874;2023-01-15T15:40:23;100302.44;;;9.99;70.02
46690;BME280;32423;45.398;10.874;2023-01-15T15:43:16;100293.28;;;10.12;69.55
46690;BME280;32423;45.398;10.874;2023-01-15T15:46:27;100283.88;;;10.09;69.39
46690;BME280;32423;45.398;10.874;2023-01-15T15:49:37;100284.53;;;9.89;70.93
46690;BME280;32423;45.398;10.874;2023-01-15T15:52:21;100298.91;;;10.15;70.80
46690;BME280;32423;45.398;10.874;2023-01-15T15:55:13;100295.19;;;10.37;69.64
46690;BME280;32423;45.398;10.874;2023-01-15T15:57:59;100293.78;;;10.22;70.36
46690;BME280;32423;45.398;10.874;2023-01-15T16:00:44;100294.84;;;10.47;69.33
46690;BME280;32423;45.398;10.874;2023-01-15T16:03:30;100299.22;;;10.22;70.21
46690;BME280;32423;45.398;10.874;2023-01-15T16:06:19;100304.66;;;10.05;70.81
46690;BME280;32423;45.398;10.874;2023-01-15T16:09:07;100289.00;;;10.19;70.57
46690;BME280;32423;45.398;10.874;2023-01-15T16:11:53;100303.69;;;10.36;69.93
46690;BME280;32423;45.398;10.874;2023-01-15T16:14:50;100298.69;;;10.46;68.92